sensor_id;sensor_type;location;lat;lon;timestamp;temperature;humidity
9865;DHT22;4971;52.398;9.774;2022-08-06T00:01:52;14.90;99.90
9865;DHT22;4971;52.398;9.774;2022-08-06T00:04:18;15.00;99.90
9865;DHT22;4971;52.398;9.774;2022-08-06T00:09:10;14.70;99.90
9865;DHT22;4971;52.398;9.774;2022-08-06T00:11:40;14.60;99.90
9865;DHT22;4971;52.398;9.774;2022-08-06T00:14:07;14.90;99.90
9865;DHT22;4971;52.398;9.774;2022-08-06T00:23:51;14.80;99.90
9865;DHT22;4971;52.398;9.774;2022-08-06T00:31:08;14.70;99.90
9865;DHT22;4971;52.398;9.774;2022-08-06T00:33:35;14.50;99.90
9865;DHT22;4971;52.398;9.774;2022-08-06T00:36:01;14.40;99.90
9865;DHT22;4971;52.398;9.774;2022-08-06T00:40:53;14.80;99.90
9865;DHT22;4971;52.398;9.774;2022-08-06T00:43:19;14.50;99.90
9865;DHT22;4971;52.398;9.774;2022-08-06T00:48:12;14.30;99.90
9865;DHT22;4971;52.398;9.774;2022-08-06T00:55:31;14.40;99.90
9865;DHT22;4971;52.398;9.774;2022-08-06T01:02:49;14.30;99.90
9865;DHT22;4971;52.398;9.774;2022-08-06T01:05:14;14.10;99.90
9865;DHT22;4971;52.398;9.774;2022-08-06T01:07:40;14.60;99.90
9865;DHT22;4971;52.398;9.774;2022-08-06T01:10:06;14.20;99.90
9865;DHT22;4971;52.398;9.774;2022-08-06T01:12:32;14.30;99.90
9865;DHT22;4971;52.398;9.774;2022-08-06T01:14:58;13.90;99.90
9865;DHT22;4971;52.398;9.774;2022-08-06T01:30:46;14.00;99.90
9865;DHT22;4971;52.398;9.774;2022-08-06T01:33:25;13.90;99.90
9865;DHT22;4971;52.398;9.774;2022-08-06T01:35:55;14.10;99.90
9865;DHT22;4971;52.398;9.774;2022-08-06T01:38:26;14.00;99.90
9865;DHT22;4971;52.398;9.774;2022-08-06T01:40:56;14.10;99.90
9865;DHT22;4971;52.398;9.774;2022-08-06T01:43:24;13.90;99.90
9865;DHT22;4971;52.398;9.774;2022-08-06T01:45:52;14.10;99.90
9865;DHT22;4971;52.398;9.774;2022-08-06T01:48:23;14.00;99.90
9865;DHT22;4971;52.398;9.774;2022-08-06T01:50:54;14.00;99.90
9865;DHT22;4971;52.398;9.774;2022-08-06T01:53:34;13.70;99.90
9865;DHT22;4971;52.398;9.774;2022-08-06T01:56:04;13.70;99.90
9865;DHT22;4971;52.398;9.774;2022-08-06T01:58:34;13.70;99.90
9865;DHT22;4971;52.398;9.774;2022-08-06T02:01:06;13.60;99.90
9865;DHT22;4971;52.398;9.774;2022-08-06T02:03:51;13.80;99.90
9865;DHT22;4971;52.398;9.774;2022-08-06T02:06:24;13.40;99.90
9865;DHT22;4971;52.398;9.774;2022-08-06T02:08:51;13.30;99.90
9865;DHT22;4971;52.398;9.774;2022-08-06T02:11:18;13.00;99.90
9865;DHT22;4971;52.398;9.774;2022-08-06T02:13:45;13.10;99.90
9865;DHT22;4971;52.398;9.774;2022-08-06T02:16:12;13.10;99.90
9865;DHT22;4971;52.398;9.774;2022-08-06T02:18:40;13.00;99.90
9865;DHT22;4971;52.398;9.774;2022-08-06T02:21:10;13.00;99.90
9865;DHT22;4971;52.398;9.774;2022-08-06T02:23:38;13.30;99.90
9865;DHT22;4971;52.398;9.774;2022-08-06T02:26:05;13.20;99.90
9865;DHT22;4971;52.398;9.774;2022-08-06T02:28:33;13.20;99.90
9865;DHT22;4971;52.398;9.774;2022-08-06T02:31:00;13.30;99.90
9865;DHT22;4971;52.398;9.774;2022-08-06T02:33:26;13.20;99.90
9865;DHT22;4971;52.398;9.774;2022-08-06T02:35:59;13.20;99.90
9865;DHT22;4971;52.398;9.774;2022-08-06T02:38:50;13.20;99.90
9865;DHT22;4971;52.398;9.774;2022-08-06T02:41:22;13.30;99.90
9865;DHT22;4971;52.398;9.774;2022-08-06T02:43:55;13.20;99.90
9865;DHT22;4971;52.398;9.774;2022-08-06T02:46:28;13.20;99.90
9865;DHT22;4971;52.398;9.774;2022-08-06T02:49:03;13.50;99.90
9865;DHT22;4971;52.398;9.774;2022-08-06T02:51:38;12.90;99.90
9865;DHT22;4971;52.398;9.774;2022-08-06T02:54:14;13.00;99.90
9865;DHT22;4971;52.398;9.774;2022-08-06T02:56:45;12.90;99.90
9865;DHT22;4971;52.398;9.774;2022-08-06T02:59:13;12.80;99.90
9865;DHT22;4971;52.398;9.774;2022-08-06T03:01:43;12.80;99.90
9865;DHT22;4971;52.398;9.774;2022-08-06T03:04:14;13.00;99.90
9865;DHT22;4971;52.398;9.774;2022-08-06T03:06:42;12.90;99.90
9865;DHT22;4971;52.398;9.774;2022-08-06T03:09:12;12.80;99.90
9865;DHT22;4971;52.398;9.774;2022-08-06T03:11:41;13.00;99.90
9865;DHT22;4971;52.398;9.774;2022-08-06T03:14:08;13.00;99.90
9865;DHT22;4971;52.398;9.774;2022-08-06T03:16:37;14.30;99.90
9865;DHT22;4971;52.398;9.774;2022-08-06T03:19:04;13.10;99.90
9865;DHT22;4971;52.398;9.774;2022-08-06T03:21:32;13.20;99.90
9865;DHT22;4971;52.398;9.774;2022-08-06T03:23:59;13.10;99.90
9865;DHT22;4971;52.398;9.774;2022-08-06T03:26:26;13.00;99.90
9865;DHT22;4971;52.398;9.774;2022-08-06T03:28:55;13.10;99.90
9865;DHT22;4971;52.398;9.774;2022-08-06T03:31:22;13.10;99.90
9865;DHT22;4971;52.398;9.774;2022-08-06T03:33:49;13.10;99.90
9865;DHT22;4971;52.398;9.774;2022-08-06T03:36:15;14.00;99.90
9865;DHT22;4971;52.398;9.774;2022-08-06T03:38:46;13.10;99.90
9865;DHT22;4971;52.398;9.774;2022-08-06T03:41:13;13.30;99.90
9865;DHT22;4971;52.398;9.774;2022-08-06T03:43:39;13.50;99.90
9865;DHT22;4971;52.398;9.774;2022-08-06T03:46:05;13.20;99.90
9865;DHT22;4971;52.398;9.774;2022-08-06T03:48:38;13.30;99.90
9865;DHT22;4971;52.398;9.774;2022-08-06T03:51:17;13.30;99.90
9865;DHT22;4971;52.398;9.774;2022-08-06T03:53:45;13.50;99.90
9865;DHT22;4971;52.398;9.774;2022-08-06T03:56:20;13.30;99.90
9865;DHT22;4971;52.398;9.774;2022-08-06T03:58:47;13.20;99.90
9865;DHT22;4971;52.398;9.774;2022-08-06T04:01:21;13.30;99.90
9865;DHT22;4971;52.398;9.774;2022-08-06T04:03:50;13.30;99.90
9865;DHT22;4971;52.398;9.774;2022-08-06T04:06:23;13.00;99.90
9865;DHT22;4971;52.398;9.774;2022-08-06T04:08:49;13.20;99.90
9865;DHT22;4971;52.398;9.774;2022-08-06T04:11:16;13.20;99.90
9865;DHT22;4971;52.398;9.774;2022-08-06T04:13:44;13.20;99.90
9865;DHT22;4971;52.398;9.774;2022-08-06T04:16:12;13.20;99.90
9865;DHT22;4971;52.398;9.774;2022-08-06T04:18:39;13.10;99.90
9865;DHT22;4971;52.398;9.774;2022-08-06T04:21:15;13.10;99.90
9865;DHT22;4971;52.398;9.774;2022-08-06T04:23:42;13.30;99.90
9865;DHT22;4971;52.398;9.774;2022-08-06T04:26:09;13.50;99.90
9865;DHT22;4971;52.398;9.774;2022-08-06T04:28:40;13.30;99.90
9865;DHT22;4971;52.398;9.774;2022-08-06T04:31:07;13.20;99.90
9865;DHT22;4971;52.398;9.774;2022-08-06T04:33:34;13.30;99.90
9865;DHT22;4971;52.398;9.774;2022-08-06T04:36:03;13.10;99.90
9865;DHT22;4971;52.398;9.774;2022-08-06T04:38:33;13.20;99.90
9865;DHT22;4971;52.398;9.774;2022-08-06T04:40:59;13.20;99.90
9865;DHT22;4971;52.398;9.774;2022-08-06T04:43:26;13.30;99.90
9865;DHT22;4971;52.398;9.774;2022-08-06T04:45:52;13.20;99.90
9865;DHT22;4971;52.398;9.774;2022-08-06T04:48:19;13.20;99.90
9865;DHT22;4971;52.398;9.774;2022-08-06T04:53:16;13.80;99.90
9865;DHT22;4971;52.398;9.774;2022-08-06T04:55:43;13.30;99.90
9865;DHT22;4971;52.398;9.774;2022-08-06T04:58:12;13.40;99.90
9865;DHT22;4971;52.398;9.774;2022-08-06T05:00:43;13.20;99.90
9865;DHT22;4971;52.398;9.774;2022-08-06T05:05:38;13.40;99.90
9865;DHT22;4971;52.398;9.774;2022-08-06T05:08:06;13.30;99.90
9865;DHT22;4971;52.398;9.774;2022-08-06T05:10:47;13.30;99.90
9865;DHT22;4971;52.398;9.774;2022-08-06T05:13:14;13.30;99.90
9865;DHT22;4971;52.398;9.774;2022-08-06T05:15:43;13.40;99.90
9865;DHT22;4971;52.398;9.774;2022-08-06T05:18:24;13.30;99.90
9865;DHT22;4971;52.398;9.774;2022-08-06T05:20:53;13.30;99.90
9865;DHT22;4971;52.398;9.774;2022-08-06T05:23:26;13.60;99.90
9865;DHT22;4971;52.398;9.774;2022-08-06T05:25:52;13.50;99.90
9865;DHT22;4971;52.398;9.774;2022-08-06T05:30:49;13.70;99.90
9865;DHT22;4971;52.398;9.774;2022-08-06T05:33:26;13.60;99.90
9865;DHT22;4971;52.398;9.774;2022-08-06T05:35:53;13.60;99.90
9865;DHT22;4971;52.398;9.774;2022-08-06T05:40:45;13.80;99.90
9865;DHT22;4971;52.398;9.774;2022-08-06T05:43:10;13.50;99.90
9865;DHT22;4971;52.398;9.774;2022-08-06T05:45:39;13.70;99.90
9865;DHT22;4971;52.398;9.774;2022-08-06T05:48:07;13.50;99.90
9865;DHT22;4971;52.398;9.774;2022-08-06T05:50:35;13.80;99.90
9865;DHT22;4971;52.398;9.774;2022-08-06T05:53:08;14.10;99.90
9865;DHT22;4971;52.398;9.774;2022-08-06T05:58:03;13.90;99.90
9865;DHT22;4971;52.398;9.774;2022-08-06T06:00:32;13.90;99.90
9865;DHT22;4971;52.398;9.774;2022-08-06T06:03:00;14.10;99.90
9865;DHT22;4971;52.398;9.774;2022-08-06T06:05:27;14.00;99.90
9865;DHT22;4971;52.398;9.774;2022-08-06T06:07:53;14.10;99.90
9865;DHT22;4971;52.398;9.774;2022-08-06T06:10:22;14.00;99.90
9865;DHT22;4971;52.398;9.774;2022-08-06T06:12:49;14.30;99.90
9865;DHT22;4971;52.398;9.774;2022-08-06T06:15:16;14.30;99.90
9865;DHT22;4971;52.398;9.774;2022-08-06T06:26:20;14.30;99.90
9865;DHT22;4971;52.398;9.774;2022-08-06T06:31:53;14.00;99.90
9865;DHT22;4971;52.398;9.774;2022-08-06T06:37:03;14.50;99.90
9865;DHT22;4971;52.398;9.774;2022-08-06T06:39:48;14.40;99.90
9865;DHT22;4971;52.398;9.774;2022-08-06T06:42:22;14.60;99.90
9865;DHT22;4971;52.398;9.774;2022-08-06T06:44:58;14.40;99.90
9865;DHT22;4971;52.398;9.774;2022-08-06T06:48:08;14.30;99.90
9865;DHT22;4971;52.398;9.774;2022-08-06T06:50:25;14.80;99.90
9865;DHT22;4971;52.398;9.774;2022-08-06T06:52:52;14.90;99.90
9865;DHT22;4971;52.398;9.774;2022-08-06T06:55:46;14.90;99.90
9865;DHT22;4971;52.398;9.774;2022-08-06T06:58:15;15.00;99.90
9865;DHT22;4971;52.398;9.774;2022-08-06T07:00:42;14.90;99.90
9865;DHT22;4971;52.398;9.774;2022-08-06T07:03:10;15.10;99.90
9865;DHT22;4971;52.398;9.774;2022-08-06T07:05:40;15.20;99.90
9865;DHT22;4971;52.398;9.774;2022-08-06T07:08:10;15.40;99.90
9865;DHT22;4971;52.398;9.774;2022-08-06T07:10:38;15.30;99.90
9865;DHT22;4971;52.398;9.774;2022-08-06T07:13:05;15.30;99.90
9865;DHT22;4971;52.398;9.774;2022-08-06T07:15:32;15.40;99.90
9865;DHT22;4971;52.398;9.774;2022-08-06T07:18:02;15.50;99.90
9865;DHT22;4971;52.398;9.774;2022-08-06T07:20:30;15.60;99.90
9865;DHT22;4971;52.398;9.774;2022-08-06T07:22:59;15.60;99.90
9865;DHT22;4971;52.398;9.774;2022-08-06T07:25:26;15.70;99.90
9865;DHT22;4971;52.398;9.774;2022-08-06T07:27:53;15.70;99.90
9865;DHT22;4971;52.398;9.774;2022-08-06T07:30:20;15.60;99.90
9865;DHT22;4971;52.398;9.774;2022-08-06T07:32:47;15.90;99.90
9865;DHT22;4971;52.398;9.774;2022-08-06T07:35:14;16.10;99.90
9865;DHT22;4971;52.398;9.774;2022-08-06T07:37:46;16.10;99.90
9865;DHT22;4971;52.398;9.774;2022-08-06T07:45:34;16.10;99.90
9865;DHT22;4971;52.398;9.774;2022-08-06T07:48:05;15.90;99.90
9865;DHT22;4971;52.398;9.774;2022-08-06T07:52:59;16.40;99.90
9865;DHT22;4971;52.398;9.774;2022-08-06T07:55:26;16.50;99.90
9865;DHT22;4971;52.398;9.774;2022-08-06T07:57:53;16.40;99.90
9865;DHT22;4971;52.398;9.774;2022-08-06T08:02:46;16.70;99.90
9865;DHT22;4971;52.398;9.774;2022-08-06T08:05:34;16.70;99.90
9865;DHT22;4971;52.398;9.774;2022-08-06T08:08:18;16.60;99.90
9865;DHT22;4971;52.398;9.774;2022-08-06T08:10:44;16.80;99.90
9865;DHT22;4971;52.398;9.774;2022-08-06T08:13:11;16.80;99.90
9865;DHT22;4971;52.398;9.774;2022-08-06T08:15:38;17.00;99.90
9865;DHT22;4971;52.398;9.774;2022-08-06T08:18:04;17.00;99.90
9865;DHT22;4971;52.398;9.774;2022-08-06T08:20:30;17.10;99.90
9865;DHT22;4971;52.398;9.774;2022-08-06T08:22:56;17.20;99.90
9865;DHT22;4971;52.398;9.774;2022-08-06T08:25:23;17.50;99.90
9865;DHT22;4971;52.398;9.774;2022-08-06T08:30:17;17.40;99.90
9865;DHT22;4971;52.398;9.774;2022-08-06T08:37:37;17.30;99.90
9865;DHT22;4971;52.398;9.774;2022-08-06T08:40:03;17.60;99.90
9865;DHT22;4971;52.398;9.774;2022-08-06T08:42:42;19.70;99.90
9865;DHT22;4971;52.398;9.774;2022-08-06T08:45:09;18.10;99.90
9865;DHT22;4971;52.398;9.774;2022-08-06T08:47:39;18.30;99.90
9865;DHT22;4971;52.398;9.774;2022-08-06T08:52:38;18.70;99.90
9865;DHT22;4971;52.398;9.774;2022-08-06T08:55:06;19.10;99.90
9865;DHT22;4971;52.398;9.774;2022-08-06T09:00:03;19.10;99.90
9865;DHT22;4971;52.398;9.774;2022-08-06T09:09:48;19.30;99.90
9865;DHT22;4971;52.398;9.774;2022-08-06T09:17:09;18.70;99.90
9865;DHT22;4971;52.398;9.774;2022-08-06T09:19:35;18.90;99.90
9865;DHT22;4971;52.398;9.774;2022-08-06T09:24:27;20.00;99.90
9865;DHT22;4971;52.398;9.774;2022-08-06T09:31:54;20.00;99.90
9865;DHT22;4971;52.398;9.774;2022-08-06T09:34:20;20.20;99.90
9865;DHT22;4971;52.398;9.774;2022-08-06T09:36:47;21.00;99.90
9865;DHT22;4971;52.398;9.774;2022-08-06T09:39:13;20.70;99.90
9865;DHT22;4971;52.398;9.774;2022-08-06T09:41:49;21.20;99.90
9865;DHT22;4971;52.398;9.774;2022-08-06T09:44:17;20.30;99.90
9865;DHT22;4971;52.398;9.774;2022-08-06T09:46:45;20.40;99.90
9865;DHT22;4971;52.398;9.774;2022-08-06T09:49:13;21.50;99.90
9865;DHT22;4971;52.398;9.774;2022-08-06T09:51:40;22.20;99.90
9865;DHT22;4971;52.398;9.774;2022-08-06T09:54:08;22.20;99.90
9865;DHT22;4971;52.398;9.774;2022-08-06T09:59:12;22.00;98.90
9865;DHT22;4971;52.398;9.774;2022-08-06T10:01:46;21.20;99.20
9865;DHT22;4971;52.398;9.774;2022-08-06T10:04:13;22.10;99.20
9865;DHT22;4971;52.398;9.774;2022-08-06T10:07:00;21.80;98.20
9865;DHT22;4971;52.398;9.774;2022-08-06T10:09:27;21.40;98.80
9865;DHT22;4971;52.398;9.774;2022-08-06T10:11:54;21.70;99.90
9865;DHT22;4971;52.398;9.774;2022-08-06T10:14:31;21.50;99.40
9865;DHT22;4971;52.398;9.774;2022-08-06T10:17:14;20.70;99.20
9865;DHT22;4971;52.398;9.774;2022-08-06T10:19:43;20.50;99.90
9865;DHT22;4971;52.398;9.774;2022-08-06T10:22:15;20.20;99.90
9865;DHT22;4971;52.398;9.774;2022-08-06T10:24:46;21.10;99.90
9865;DHT22;4971;52.398;9.774;2022-08-06T10:27:16;21.30;98.90
9865;DHT22;4971;52.398;9.774;2022-08-06T10:29:49;22.00;99.90
9865;DHT22;4971;52.398;9.774;2022-08-06T10:32:22;22.30;97.80
9865;DHT22;4971;52.398;9.774;2022-08-06T10:34:49;22.30;99.90
9865;DHT22;4971;52.398;9.774;2022-08-06T10:37:18;22.50;95.00
9865;DHT22;4971;52.398;9.774;2022-08-06T10:39:46;22.60;95.80
9865;DHT22;4971;52.398;9.774;2022-08-06T10:42:13;22.00;95.10
9865;DHT22;4971;52.398;9.774;2022-08-06T10:44:40;21.40;96.90
9865;DHT22;4971;52.398;9.774;2022-08-06T10:47:07;21.40;94.90
9865;DHT22;4971;52.398;9.774;2022-08-06T10:49:34;21.10;93.70
9865;DHT22;4971;52.398;9.774;2022-08-06T10:52:00;21.70;92.90
9865;DHT22;4971;52.398;9.774;2022-08-06T10:54:26;22.60;93.90
9865;DHT22;4971;52.398;9.774;2022-08-06T10:59:20;21.20;94.60
9865;DHT22;4971;52.398;9.774;2022-08-06T11:02:06;20.80;98.30
9865;DHT22;4971;52.398;9.774;2022-08-06T11:10:32;20.80;96.40
9865;DHT22;4971;52.398;9.774;2022-08-06T11:13:28;21.10;95.60
9865;DHT22;4971;52.398;9.774;2022-08-06T11:20:49;21.30;90.40
9865;DHT22;4971;52.398;9.774;2022-08-06T11:25:45;20.80;92.10
9865;DHT22;4971;52.398;9.774;2022-08-06T11:38:09;20.40;90.00
9865;DHT22;4971;52.398;9.774;2022-08-06T11:40:59;20.30;90.70
9865;DHT22;4971;52.398;9.774;2022-08-06T11:54:30;20.00;93.10
9865;DHT22;4971;52.398;9.774;2022-08-06T12:02:13;20.10;80.10
9865;DHT22;4971;52.398;9.774;2022-08-06T12:07:28;20.10;88.80
9865;DHT22;4971;52.398;9.774;2022-08-06T12:09:58;20.20;88.50
9865;DHT22;4971;52.398;9.774;2022-08-06T12:22:58;20.20;89.50
9865;DHT22;4971;52.398;9.774;2022-08-06T12:25:30;20.50;90.30
9865;DHT22;4971;52.398;9.774;2022-08-06T12:27:56;20.20;92.30
9865;DHT22;4971;52.398;9.774;2022-08-06T12:30:22;20.30;93.00
9865;DHT22;4971;52.398;9.774;2022-08-06T12:37:43;20.40;87.90
9865;DHT22;4971;52.398;9.774;2022-08-06T12:40:12;20.10;87.10
9865;DHT22;4971;52.398;9.774;2022-08-06T12:43:13;20.20;86.70
9865;DHT22;4971;52.398;9.774;2022-08-06T12:45:41;20.10;86.60
9865;DHT22;4971;52.398;9.774;2022-08-06T12:48:09;20.40;85.40
9865;DHT22;4971;52.398;9.774;2022-08-06T12:50:38;20.60;81.50
9865;DHT22;4971;52.398;9.774;2022-08-06T12:53:12;20.60;78.30
9865;DHT22;4971;52.398;9.774;2022-08-06T12:55:48;20.30;82.00
9865;DHT22;4971;52.398;9.774;2022-08-06T12:58:16;20.80;84.30
9865;DHT22;4971;52.398;9.774;2022-08-06T13:00:46;20.90;82.30
9865;DHT22;4971;52.398;9.774;2022-08-06T13:05:41;21.40;79.20
9865;DHT22;4971;52.398;9.774;2022-08-06T13:08:08;21.10;79.60
9865;DHT22;4971;52.398;9.774;2022-08-06T13:13:02;21.10;81.40
9865;DHT22;4971;52.398;9.774;2022-08-06T13:15:30;21.10;81.60
9865;DHT22;4971;52.398;9.774;2022-08-06T13:18:04;21.30;77.40
9865;DHT22;4971;52.398;9.774;2022-08-06T13:28:24;20.50;78.30
9865;DHT22;4971;52.398;9.774;2022-08-06T13:35:48;20.50;76.70
9865;DHT22;4971;52.398;9.774;2022-08-06T13:38:30;20.30;81.40
9865;DHT22;4971;52.398;9.774;2022-08-06T13:46:20;20.40;81.10
9865;DHT22;4971;52.398;9.774;2022-08-06T13:48:50;20.40;79.50
9865;DHT22;4971;52.398;9.774;2022-08-06T13:51:17;20.40;76.80
9865;DHT22;4971;52.398;9.774;2022-08-06T13:56:09;20.30;77.50
9865;DHT22;4971;52.398;9.774;2022-08-06T13:58:35;20.40;78.80
9865;DHT22;4971;52.398;9.774;2022-08-06T14:03:27;20.60;78.20
9865;DHT22;4971;52.398;9.774;2022-08-06T14:05:54;20.60;82.70
9865;DHT22;4971;52.398;9.774;2022-08-06T14:15:49;20.70;77.60
9865;DHT22;4971;52.398;9.774;2022-08-06T14:18:16;20.80;77.10
9865;DHT22;4971;52.398;9.774;2022-08-06T14:20:42;20.80;75.70
9865;DHT22;4971;52.398;9.774;2022-08-06T14:25:34;20.60;67.60
9865;DHT22;4971;52.398;9.774;2022-08-06T14:30:26;21.10;71.20
9865;DHT22;4971;52.398;9.774;2022-08-06T14:37:45;21.40;72.60
9865;DHT22;4971;52.398;9.774;2022-08-06T14:40:13;20.60;72.40
9865;DHT22;4971;52.398;9.774;2022-08-06T14:47:50;21.00;74.40
9865;DHT22;4971;52.398;9.774;2022-08-06T14:50:16;20.40;70.80
9865;DHT22;4971;52.398;9.774;2022-08-06T14:57:36;20.80;72.40
9865;DHT22;4971;52.398;9.774;2022-08-06T15:00:07;20.90;72.20
9865;DHT22;4971;52.398;9.774;2022-08-06T15:02:33;20.50;70.90
9865;DHT22;4971;52.398;9.774;2022-08-06T15:04:59;21.60;73.60
9865;DHT22;4971;52.398;9.774;2022-08-06T15:07:25;21.20;74.20
9865;DHT22;4971;52.398;9.774;2022-08-06T15:14:43;21.30;75.90
9865;DHT22;4971;52.398;9.774;2022-08-06T15:24:28;20.90;75.80
9865;DHT22;4971;52.398;9.774;2022-08-06T15:26:54;21.10;76.00
9865;DHT22;4971;52.398;9.774;2022-08-06T15:29:21;21.00;76.40
9865;DHT22;4971;52.398;9.774;2022-08-06T15:31:49;21.10;78.80
9865;DHT22;4971;52.398;9.774;2022-08-06T15:39:08;20.60;76.20
9865;DHT22;4971;52.398;9.774;2022-08-06T15:43:59;20.60;78.80
9865;DHT22;4971;52.398;9.774;2022-08-06T15:51:23;20.60;79.50
9865;DHT22;4971;52.398;9.774;2022-08-06T15:58:41;20.80;81.90
9865;DHT22;4971;52.398;9.774;2022-08-06T16:01:08;20.50;80.40
9865;DHT22;4971;52.398;9.774;2022-08-06T16:10:52;20.70;79.60
9865;DHT22;4971;52.398;9.774;2022-08-06T16:15:49;20.60;76.90
9865;DHT22;4971;52.398;9.774;2022-08-06T16:18:16;20.50;75.90
9865;DHT22;4971;52.398;9.774;2022-08-06T16:20:43;20.30;77.60
9865;DHT22;4971;52.398;9.774;2022-08-06T16:23:10;20.20;76.90
9865;DHT22;4971;52.398;9.774;2022-08-06T16:28:03;20.60;79.80
9865;DHT22;4971;52.398;9.774;2022-08-06T16:30:29;20.30;78.00
9865;DHT22;4971;52.398;9.774;2022-08-06T16:35:20;20.20;77.50
9865;DHT22;4971;52.398;9.774;2022-08-06T16:40:12;20.20;79.10
9865;DHT22;4971;52.398;9.774;2022-08-06T16:45:05;20.40;80.30
9865;DHT22;4971;52.398;9.774;2022-08-06T16:47:31;20.40;80.80
9865;DHT22;4971;52.398;9.774;2022-08-06T16:49:57;20.40;77.50
9865;DHT22;4971;52.398;9.774;2022-08-06T16:59:41;20.00;79.60
9865;DHT22;4971;52.398;9.774;2022-08-06T17:02:07;20.20;81.20
9865;DHT22;4971;52.398;9.774;2022-08-06T17:09:44;19.90;84.50
9865;DHT22;4971;52.398;9.774;2022-08-06T17:17:03;20.10;85.50
9865;DHT22;4971;52.398;9.774;2022-08-06T17:19:30;19.90;86.20
9865;DHT22;4971;52.398;9.774;2022-08-06T17:21:56;19.80;86.90
9865;DHT22;4971;52.398;9.774;2022-08-06T17:26:48;19.90;87.80
9865;DHT22;4971;52.398;9.774;2022-08-06T17:29:14;19.70;88.10
9865;DHT22;4971;52.398;9.774;2022-08-06T17:31:43;19.70;90.20
9865;DHT22;4971;52.398;9.774;2022-08-06T17:34:09;19.60;89.60
9865;DHT22;4971;52.398;9.774;2022-08-06T17:36:36;19.50;90.60
9865;DHT22;4971;52.398;9.774;2022-08-06T17:39:02;19.50;91.10
9865;DHT22;4971;52.398;9.774;2022-08-06T17:51:12;19.60;91.00
9865;DHT22;4971;52.398;9.774;2022-08-06T17:53:37;19.20;90.60
9865;DHT22;4971;52.398;9.774;2022-08-06T17:56:03;19.70;90.90
9865;DHT22;4971;52.398;9.774;2022-08-06T17:58:31;19.60;91.40
9865;DHT22;4971;52.398;9.774;2022-08-06T18:05:49;19.60;90.80
9865;DHT22;4971;52.398;9.774;2022-08-06T18:08:15;19.60;91.70
9865;DHT22;4971;52.398;9.774;2022-08-06T18:10:42;19.60;91.30
9865;DHT22;4971;52.398;9.774;2022-08-06T18:13:08;19.50;91.30
9865;DHT22;4971;52.398;9.774;2022-08-06T18:15:34;19.60;91.00
9865;DHT22;4971;52.398;9.774;2022-08-06T18:18:00;19.60;91.20
9865;DHT22;4971;52.398;9.774;2022-08-06T18:20:29;19.50;91.30
9865;DHT22;4971;52.398;9.774;2022-08-06T18:22:55;19.50;91.60
9865;DHT22;4971;52.398;9.774;2022-08-06T18:30:18;19.20;92.10
9865;DHT22;4971;52.398;9.774;2022-08-06T18:32:45;19.10;93.00
9865;DHT22;4971;52.398;9.774;2022-08-06T18:35:10;19.00;93.50
9865;DHT22;4971;52.398;9.774;2022-08-06T18:44:57;19.00;95.00
9865;DHT22;4971;52.398;9.774;2022-08-06T18:47:25;18.60;95.40
9865;DHT22;4971;52.398;9.774;2022-08-06T18:52:17;18.90;95.80
9865;DHT22;4971;52.398;9.774;2022-08-06T18:54:43;18.90;96.60
9865;DHT22;4971;52.398;9.774;2022-08-06T18:57:12;18.70;96.90
9865;DHT22;4971;52.398;9.774;2022-08-06T19:04:30;18.30;98.00
9865;DHT22;4971;52.398;9.774;2022-08-06T19:06:57;18.60;98.10
9865;DHT22;4971;52.398;9.774;2022-08-06T19:09:23;18.20;98.10
9865;DHT22;4971;52.398;9.774;2022-08-06T19:14:15;18.30;99.00
9865;DHT22;4971;52.398;9.774;2022-08-06T20:07:52;17.20;99.90
9865;DHT22;4971;52.398;9.774;2022-08-06T20:10:18;17.20;99.90
9865;DHT22;4971;52.398;9.774;2022-08-06T20:20:03;16.90;99.90
9865;DHT22;4971;52.398;9.774;2022-08-06T20:22:29;16.80;99.90
9865;DHT22;4971;52.398;9.774;2022-08-06T20:24:55;16.90;99.90
9865;DHT22;4971;52.398;9.774;2022-08-06T20:27:21;16.70;99.90
9865;DHT22;4971;52.398;9.774;2022-08-06T20:29:47;16.40;99.90
9865;DHT22;4971;52.398;9.774;2022-08-06T20:32:12;16.40;99.90
9865;DHT22;4971;52.398;9.774;2022-08-06T20:37:04;16.50;99.90
9865;DHT22;4971;52.398;9.774;2022-08-06T20:44:22;16.80;99.90
9865;DHT22;4971;52.398;9.774;2022-08-06T20:46:49;16.30;99.90
9865;DHT22;4971;52.398;9.774;2022-08-06T20:49:14;16.50;99.90
9865;DHT22;4971;52.398;9.774;2022-08-06T20:51:40;16.60;99.90
9865;DHT22;4971;52.398;9.774;2022-08-06T20:56:33;16.40;99.90
9865;DHT22;4971;52.398;9.774;2022-08-06T20:59:00;16.40;99.90
9865;DHT22;4971;52.398;9.774;2022-08-06T21:06:17;16.30;99.90
9865;DHT22;4971;52.398;9.774;2022-08-06T21:11:10;16.00;99.90
9865;DHT22;4971;52.398;9.774;2022-08-06T21:16:06;16.20;99.90
9865;DHT22;4971;52.398;9.774;2022-08-06T21:25:50;16.30;99.90
9865;DHT22;4971;52.398;9.774;2022-08-06T21:30:45;16.10;99.90
9865;DHT22;4971;52.398;9.774;2022-08-06T21:33:11;16.00;99.90
9865;DHT22;4971;52.398;9.774;2022-08-06T21:38:03;15.90;99.90
9865;DHT22;4971;52.398;9.774;2022-08-06T21:47:51;16.10;99.90
9865;DHT22;4971;52.398;9.774;2022-08-06T21:55:09;16.00;99.90
9865;DHT22;4971;52.398;9.774;2022-08-06T21:57:38;15.90;99.90
9865;DHT22;4971;52.398;9.774;2022-08-06T22:00:19;16.00;99.90
9865;DHT22;4971;52.398;9.774;2022-08-06T22:03:05;15.90;99.90
9865;DHT22;4971;52.398;9.774;2022-08-06T22:05:31;16.00;99.90
9865;DHT22;4971;52.398;9.774;2022-08-06T22:32:36;15.60;99.90
9865;DHT22;4971;52.398;9.774;2022-08-06T22:35:03;15.50;99.90
9865;DHT22;4971;52.398;9.774;2022-08-06T22:37:28;15.60;99.90
9865;DHT22;4971;52.398;9.774;2022-08-06T22:42:20;15.40;99.90
9865;DHT22;4971;52.398;9.774;2022-08-06T23:01:48;15.20;99.90
9865;DHT22;4971;52.398;9.774;2022-08-06T23:04:14;15.40;99.90
9865;DHT22;4971;52.398;9.774;2022-08-06T23:06:39;15.20;99.90
9865;DHT22;4971;52.398;9.774;2022-08-06T23:16:23;15.30;99.90
9865;DHT22;4971;52.398;9.774;2022-08-06T23:23:54;15.10;99.90
9865;DHT22;4971;52.398;9.774;2022-08-06T23:26:21;14.90;99.90
9865;DHT22;4971;52.398;9.774;2022-08-06T23:36:05;15.00;99.90
9865;DHT22;4971;52.398;9.774;2022-08-06T23:40:57;14.70;99.90
9865;DHT22;4971;52.398;9.774;2022-08-06T23:45:49;14.80;99.90
9865;DHT22;4971;52.398;9.774;2022-08-06T23:48:16;14.80;99.90
9865;DHT22;4971;52.398;9.774;2022-08-06T23:55:35;14.20;99.90
